createdAt,value
2023-01-23T00:01:31.080Z,103532.09
2023-01-23T00:03:59.325Z,103539.13
2023-01-23T00:06:29.066Z,103533.84
2023-01-23T00:08:57.413Z,103541.78
2023-01-23T00:11:30.127Z,103543.53
2023-01-23T00:13:58.446Z,103546.25
2023-01-23T00:16:27.885Z,103546.25
2023-01-23T00:18:56.005Z,103549.75
2023-01-23T00:21:25.752Z,103558.59
2023-01-23T00:23:56.720Z,103551.56
2023-01-23T00:26:26.483Z,103554.22
2023-01-23T00:28:55.650Z,103555.97
2023-01-23T00:31:25.667Z,103559.50
2023-01-23T00:33:55.754Z,103560.41
2023-01-23T00:36:24.593Z,103556.00
2023-01-23T00:38:52.471Z,103555.09
2023-01-23T00:41:21.689Z,103558.66
2023-01-23T00:43:51.858Z,103562.13
2023-01-23T00:46:20.162Z,103565.66
2023-01-23T00:48:48.239Z,103565.63
2023-01-23T00:51:16.465Z,103575.38
2023-01-23T00:53:44.376Z,103566.56
2023-01-23T00:56:12.892Z,103563.94
2023-01-23T00:58:44.168Z,103564.81
2023-01-23T01:01:13.928Z,103563.91
2023-01-23T01:03:41.899Z,103569.25
2023-01-23T01:06:10.347Z,103563.09
2023-01-23T01:08:38.476Z,103569.25
2023-01-23T01:11:06.989Z,103569.28
2023-01-23T01:13:35.007Z,103569.28
2023-01-23T01:16:04.638Z,103571.06
2023-01-23T01:18:32.507Z,103579.00
2023-01-23T01:21:00.816Z,103576.34
2023-01-23T01:23:28.741Z,103577.22
2023-01-23T01:26:00.423Z,103577.19
2023-01-23T01:28:30.404Z,103588.63
2023-01-23T01:30:58.684Z,103585.13
2023-01-23T01:33:28.349Z,103582.34
2023-01-23T01:35:56.903Z,103583.16
2023-01-23T01:38:25.009Z,103587.66
2023-01-23T01:40:52.841Z,103599.84
2023-01-23T01:43:24.159Z,103600.75
2023-01-23T01:46:19.772Z,103600.78
2023-01-23T01:48:58.055Z,103607.88
2023-01-23T01:51:30.528Z,103596.34
2023-01-23T01:54:05.664Z,103597.19
2023-01-23T01:56:38.420Z,103604.28
2023-01-23T01:59:07.807Z,103608.72
2023-01-23T02:01:36.257Z,103605.13
2023-01-23T02:04:05.959Z,103607.72
2023-01-23T02:06:34.197Z,103613.00
2023-01-23T02:09:07.355Z,103614.75
2023-01-23T02:11:35.312Z,103616.59
2023-01-23T02:14:03.150Z,103623.69
2023-01-23T02:16:40.369Z,103614.00
2023-01-23T02:19:29.370Z,103615.75
2023-01-23T02:22:08.720Z,103623.75
2023-01-23T02:24:43.102Z,103614.00
2023-01-23T02:27:12.548Z,103612.22
2023-01-23T02:29:45.109Z,103618.44
2023-01-23T02:32:12.971Z,103613.94
2023-01-23T02:34:42.133Z,103621.00
2023-01-23T02:37:10.724Z,103612.22
2023-01-23T02:39:40.756Z,103617.41
2023-01-23T02:42:09.468Z,103612.13
2023-01-23T02:44:38.693Z,103613.00
2023-01-23T02:47:12.445Z,103603.22
2023-01-23T02:49:40.435Z,103607.56
2023-01-23T02:52:09.727Z,103604.09
2023-01-23T02:54:38.050Z,103593.50
2023-01-23T02:57:05.906Z,103600.56
2023-01-23T03:00:05.586Z,103604.97
2023-01-23T03:02:34.814Z,103604.97
2023-01-23T03:05:02.648Z,103611.94
2023-01-23T03:07:30.558Z,103605.75
2023-01-23T03:09:58.470Z,103605.75
2023-01-23T03:12:26.392Z,103604.00
2023-01-23T03:14:56.154Z,103593.44
2023-01-23T03:17:24.578Z,103600.50
2023-01-23T03:19:53.901Z,103595.19
2023-01-23T03:22:21.928Z,103604.00
2023-01-23T03:24:49.781Z,103605.75
2023-01-23T03:27:18.020Z,103603.97
2023-01-23T03:30:03.789Z,103602.16
2023-01-23T03:32:31.666Z,103609.19
2023-01-23T03:35:00.967Z,103611.03
2023-01-23T03:37:28.984Z,103611.94
2023-01-23T03:40:13.967Z,103617.22
2023-01-23T03:42:42.001Z,103617.16
2023-01-23T03:45:10.598Z,103626.91
2023-01-23T03:47:38.582Z,103623.41
2023-01-23T03:50:09.464Z,103630.50
2023-01-23T03:52:37.984Z,103633.09
2023-01-23T03:55:06.697Z,103637.59
2023-01-23T03:57:34.515Z,103628.75
2023-01-23T04:00:02.351Z,103637.59
2023-01-23T04:02:30.330Z,103638.47
2023-01-23T04:04:58.280Z,103642.94
2023-01-23T04:07:27.516Z,103636.75
2023-01-23T04:09:55.396Z,103637.59
2023-01-23T04:12:23.254Z,103639.28
2023-01-23T04:14:51.062Z,103636.63
2023-01-23T04:17:18.911Z,103637.47
2023-01-23T04:19:46.900Z,103636.63
2023-01-23T04:22:14.698Z,103637.50
2023-01-23T04:24:43.903Z,103639.28
2023-01-23T04:27:11.871Z,103647.16
2023-01-23T04:29:39.675Z,103643.63
2023-01-23T04:32:09.578Z,103653.28
2023-01-23T04:34:37.458Z,103656.81
2023-01-23T04:37:05.261Z,103660.31
2023-01-23T04:39:33.898Z,103668.16
2023-01-23T04:42:03.101Z,103659.38
2023-01-23T04:44:31.216Z,103668.22
2023-01-23T04:47:00.125Z,103665.66
2023-01-23T04:49:28.405Z,103664.75
2023-01-23T04:51:56.297Z,103668.28
2023-01-23T04:54:24.181Z,103666.50
2023-01-23T04:56:52.142Z,103669.13
2023-01-23T04:59:21.641Z,103672.66
2023-01-23T05:01:49.489Z,103666.56
2023-01-23T05:04:17.351Z,103667.41
2023-01-23T05:06:45.126Z,103672.63
2023-01-23T05:09:13.554Z,103674.41
2023-01-23T05:11:41.471Z,103672.50
2023-01-23T05:14:09.286Z,103673.44
2023-01-23T05:16:38.476Z,103675.16
2023-01-23T05:19:06.362Z,103684.00
2023-01-23T05:21:34.263Z,103693.75
2023-01-23T05:24:02.077Z,103685.97
2023-01-23T05:26:30.004Z,103692.84
2023-01-23T05:28:57.832Z,103695.50
2023-01-23T05:31:25.908Z,103688.53
2023-01-23T05:33:55.494Z,103691.19
2023-01-23T05:36:26.283Z,103695.56
2023-01-23T05:38:56.255Z,103700.94
2023-01-23T05:41:25.659Z,103703.59
2023-01-23T05:43:53.639Z,103707.97
2023-01-23T05:46:21.573Z,103702.72
2023-01-23T05:48:52.683Z,103702.69
2023-01-23T05:51:23.454Z,103715.97
2023-01-23T05:53:51.429Z,103718.53
2023-01-23T05:56:21.623Z,103715.88
2023-01-23T05:58:49.737Z,103714.06
2023-01-23T06:01:17.977Z,103713.19
2023-01-23T06:03:45.803Z,103714.16
2023-01-23T06:06:13.744Z,103718.66
2023-01-23T06:08:42.987Z,103722.22
2023-01-23T06:11:12.670Z,103726.47
2023-01-23T06:13:40.623Z,103722.91
2023-01-23T06:16:10.774Z,103719.28
2023-01-23T06:18:40.592Z,103722.06
2023-01-23T06:21:08.622Z,103722.09
2023-01-23T06:23:36.461Z,103726.56
2023-01-23T06:26:06.908Z,103722.91
2023-01-23T06:28:37.647Z,103735.28
2023-01-23T06:31:07.302Z,103740.59
2023-01-23T06:33:36.782Z,103745.06
2023-01-23T06:36:07.699Z,103738.09
2023-01-23T06:38:37.170Z,103740.66
2023-01-23T06:41:06.732Z,103739.91
2023-01-23T06:43:34.821Z,103739.88
2023-01-23T06:46:05.448Z,103738.06
2023-01-23T06:48:33.423Z,103742.41
2023-01-23T06:51:01.850Z,103742.41
2023-01-23T06:53:30.584Z,103747.69
2023-01-23T06:56:05.938Z,103748.50
2023-01-23T06:58:43.404Z,103751.16
2023-01-23T07:01:14.649Z,103760.06
2023-01-23T07:03:45.963Z,103761.81
2023-01-23T07:06:18.186Z,103759.31
2023-01-23T07:08:46.166Z,103763.78
2023-01-23T07:11:17.235Z,103767.25
2023-01-23T07:13:47.956Z,103775.09
2023-01-23T07:16:16.701Z,103777.81
2023-01-23T07:18:53.449Z,103769.06
2023-01-23T07:21:21.364Z,103772.63
2023-01-23T07:23:50.964Z,103777.91
2023-01-23T07:26:21.801Z,103777.00
2023-01-23T07:28:52.953Z,103781.44
2023-01-23T07:31:21.363Z,103783.25
2023-01-23T07:33:49.490Z,103782.50
2023-01-23T07:36:19.971Z,103787.75
2023-01-23T07:38:47.939Z,103782.44
2023-01-23T07:41:18.528Z,103784.16
2023-01-23T07:43:46.491Z,103778.88
2023-01-23T07:46:15.977Z,103782.38
2023-01-23T07:48:43.934Z,103792.13
2023-01-23T07:51:11.924Z,103794.59
2023-01-23T07:53:40.101Z,103796.19
2023-01-23T07:56:09.429Z,103794.53
2023-01-23T07:58:39.216Z,103802.53
2023-01-23T08:01:10.742Z,103806.94
2023-01-23T08:03:40.142Z,103806.13
2023-01-23T08:06:08.809Z,103812.28
2023-01-23T08:08:36.663Z,103817.56
2023-01-23T08:11:06.773Z,103814.94
2023-01-23T08:13:34.901Z,103828.97
2023-01-23T08:16:03.303Z,103816.56
2023-01-23T08:18:32.173Z,103819.34
2023-01-23T08:21:03.386Z,103816.69
2023-01-23T08:23:32.943Z,103824.59
2023-01-23T08:26:03.671Z,103828.22
2023-01-23T08:28:31.627Z,103825.53
2023-01-23T08:31:06.433Z,103828.31
2023-01-23T08:33:35.520Z,103833.63
2023-01-23T08:36:06.569Z,103836.28
2023-01-23T08:38:37.602Z,103842.41
2023-01-23T08:41:10.096Z,103837.00
2023-01-23T08:43:38.929Z,103849.25
2023-01-23T08:46:07.164Z,103849.22
2023-01-23T08:48:35.624Z,103850.97
2023-01-23T08:51:07.881Z,103845.78
2023-01-23T08:53:36.450Z,103850.34
2023-01-23T08:56:06.432Z,103853.06
2023-01-23T08:58:34.675Z,103859.19
2023-01-23T09:01:03.271Z,103859.19
2023-01-23T09:03:31.535Z,103861.03
2023-01-23T09:06:03.139Z,103864.59
2023-01-23T09:08:33.215Z,103871.50
2023-01-23T09:11:05.106Z,103867.13
2023-01-23T09:13:33.817Z,103863.63
2023-01-23T09:16:02.242Z,103867.91
2023-01-23T09:18:32.536Z,103866.38
2023-01-23T09:21:01.893Z,103860.13
2023-01-23T09:23:29.799Z,103868.13
2023-01-23T09:26:06.473Z,103863.75
2023-01-23T09:28:34.411Z,103867.19
2023-01-23T09:31:11.481Z,103869.00
2023-01-23T09:33:39.430Z,103868.00
2023-01-23T09:36:08.861Z,103863.69
2023-01-23T09:38:36.944Z,103867.09
2023-01-23T09:41:12.932Z,103871.56
2023-01-23T09:43:47.832Z,103864.66
2023-01-23T09:46:22.697Z,103855.03
2023-01-23T09:48:58.332Z,103856.78
2023-01-23T09:51:30.449Z,103861.09
2023-01-23T09:54:03.616Z,103862.84
2023-01-23T09:56:37.580Z,103874.31
2023-01-23T09:59:14.734Z,103875.38
2023-01-23T10:01:42.547Z,103871.84
2023-01-23T10:04:13.600Z,103871.00
2023-01-23T10:07:11.469Z,103862.97
2023-01-23T10:09:55.082Z,103855.81
2023-01-23T10:12:39.127Z,103849.81
2023-01-23T10:15:30.436Z,103840.97
2023-01-23T10:18:09.747Z,103837.34
2023-01-23T10:20:52.206Z,103843.56
2023-01-23T10:23:39.093Z,103843.63
2023-01-23T10:26:16.420Z,103843.63
2023-01-23T10:28:47.247Z,103845.53
2023-01-23T10:31:25.020Z,103838.50
2023-01-23T10:34:02.569Z,103843.81
2023-01-23T10:36:48.000Z,103852.66
2023-01-23T10:39:27.580Z,103847.34
2023-01-23T10:42:02.531Z,103849.94
2023-01-23T10:44:32.285Z,103851.75
2023-01-23T10:47:13.450Z,103856.19
2023-01-23T10:49:47.264Z,103851.75
2023-01-23T10:52:31.621Z,103856.25
2023-01-23T10:55:01.187Z,103856.19
2023-01-23T10:57:31.355Z,103859.69
2023-01-23T11:00:05.266Z,103849.16
2023-01-23T11:02:37.262Z,103853.59
2023-01-23T11:05:27.870Z,103851.91
2023-01-23T11:07:57.975Z,103851.97
2023-01-23T11:10:28.668Z,103853.75
2023-01-23T11:13:00.846Z,103859.97
2023-01-23T11:15:32.429Z,103857.25
2023-01-23T11:18:02.687Z,103867.00
2023-01-23T11:20:33.813Z,103860.81
2023-01-23T11:23:05.271Z,103861.66
2023-01-23T11:25:35.247Z,103859.88
2023-01-23T11:28:05.581Z,103859.94
2023-01-23T11:30:42.535Z,103858.25
2023-01-23T11:33:33.300Z,103864.41
2023-01-23T11:36:08.151Z,103867.09
2023-01-23T11:38:51.342Z,103864.44
2023-01-23T11:41:20.629Z,103864.31
2023-01-23T11:43:48.473Z,103861.78
2023-01-23T11:46:30.414Z,103868.81
2023-01-23T11:49:17.113Z,103866.09
2023-01-23T11:52:00.034Z,103867.09
2023-01-23T11:54:49.075Z,103867.06
2023-01-23T11:57:30.572Z,103864.34
2023-01-23T12:00:23.965Z,103880.31
2023-01-23T12:03:18.040Z,103878.59
2023-01-23T12:06:20.025Z,103883.91
2023-01-23T12:08:57.064Z,103881.25
2023-01-23T12:11:28.399Z,103875.06
2023-01-23T12:14:17.173Z,103877.75
2023-01-23T12:17:12.221Z,103872.44
2023-01-23T12:20:21.151Z,103873.16
2023-01-23T12:23:03.423Z,103878.50
2023-01-23T12:25:37.716Z,103873.25
2023-01-23T12:28:18.125Z,103871.53
2023-01-23T12:31:10.683Z,103875.91
2023-01-23T12:34:09.071Z,103875.00
2023-01-23T12:37:12.118Z,103864.25
2023-01-23T12:40:01.447Z,103866.19
2023-01-23T12:42:35.210Z,103872.41
2023-01-23T12:45:13.766Z,103869.78
2023-01-23T12:47:48.853Z,103876.81
2023-01-23T12:50:26.677Z,103879.50
2023-01-23T12:53:01.107Z,103876.81
2023-01-23T12:55:34.579Z,103874.28
2023-01-23T12:58:08.962Z,103877.78
2023-01-23T13:00:53.866Z,103872.44
2023-01-23T13:03:44.970Z,103873.34
2023-01-23T13:06:28.291Z,103861.78
2023-01-23T13:09:17.367Z,103863.59
2023-01-23T13:11:57.291Z,103869.81
2023-01-23T13:15:00.609Z,103868.94
2023-01-23T13:17:39.863Z,103868.88
2023-01-23T13:20:40.652Z,103867.91
2023-01-23T13:23:27.781Z,103878.50
2023-01-23T13:26:31.391Z,103881.22
2023-01-23T13:29:05.360Z,103873.13
2023-01-23T13:31:42.419Z,103878.50
2023-01-23T13:34:37.934Z,103879.44
2023-01-23T13:37:40.831Z,103873.28
2023-01-23T13:40:16.231Z,103877.75
2023-01-23T13:42:44.226Z,103887.44
2023-01-23T13:45:32.141Z,103893.69
2023-01-23T14:23:00.706Z,103882.84
2023-01-23T14:25:28.666Z,103883.81
2023-01-23T14:28:07.331Z,103875.81
2023-01-23T14:30:35.696Z,103882.00
2023-01-23T14:33:15.114Z,103881.19
2023-01-23T14:35:45.398Z,103882.09
2023-01-23T14:38:21.638Z,103888.31
2023-01-23T14:40:51.265Z,103891.75
2023-01-23T14:43:22.989Z,103889.16
2023-01-23T14:46:02.450Z,103889.06
2023-01-23T14:48:34.945Z,103885.50
2023-01-23T14:51:21.401Z,103887.31
2023-01-23T14:53:55.780Z,103882.06
2023-01-23T14:56:28.822Z,103890.91
2023-01-23T14:58:59.872Z,103894.47
2023-01-23T15:01:31.157Z,103883.84
2023-01-23T15:04:02.279Z,103887.38
2023-01-23T15:06:34.970Z,103882.81
2023-01-23T15:09:16.614Z,103876.66
2023-01-23T15:11:45.294Z,103872.31
2023-01-23T15:14:26.268Z,103871.38
2023-01-23T15:17:01.736Z,103874.91
2023-01-23T15:19:30.499Z,103870.44
2023-01-23T15:22:20.911Z,103870.47
2023-01-23T15:24:49.831Z,103864.22
2023-01-23T15:27:32.253Z,103858.91
2023-01-23T15:30:32.261Z,103862.41
2023-01-23T15:33:06.212Z,103858.00
2023-01-23T15:35:35.595Z,103857.16
2023-01-23T15:38:08.643Z,103852.75
2023-01-23T15:40:38.260Z,103845.72
2023-01-23T15:43:10.810Z,103852.66
2023-01-23T15:45:38.715Z,103851.78
2023-01-23T15:48:07.870Z,103858.91
2023-01-23T15:50:36.604Z,103859.78
2023-01-23T15:53:12.563Z,103870.41
2023-01-23T15:55:41.023Z,103865.16
2023-01-23T15:58:12.959Z,103866.91
2023-01-23T16:00:41.226Z,103877.44
2023-01-23T16:03:09.037Z,103880.88
2023-01-23T16:05:38.435Z,103872.03
2023-01-23T16:08:19.084Z,103874.69
2023-01-23T16:10:47.613Z,103872.81
2023-01-23T16:13:15.438Z,103873.69
2023-01-23T16:15:49.631Z,103874.59
2023-01-23T16:18:18.802Z,103876.44
2023-01-23T16:20:48.378Z,103872.94
2023-01-23T16:23:24.727Z,103883.53
2023-01-23T16:25:53.210Z,103878.16
2023-01-23T16:28:26.603Z,103886.19
2023-01-23T16:30:54.920Z,103884.50
2023-01-23T16:33:23.131Z,103895.16
2023-01-23T16:35:52.556Z,103890.75
2023-01-23T16:38:25.456Z,103893.41
2023-01-23T16:40:55.040Z,103898.72
2023-01-23T16:43:23.774Z,103894.28
2023-01-23T16:45:56.211Z,103897.84
2023-01-23T16:48:27.716Z,103905.53
2023-01-23T16:51:00.176Z,103906.44
2023-01-23T16:53:31.228Z,103906.53
2023-01-23T16:56:02.719Z,103913.63
2023-01-23T16:58:33.458Z,103903.09
2023-01-23T17:01:04.289Z,103916.34
2023-01-23T17:03:35.443Z,103912.72
2023-01-23T17:06:08.306Z,103920.63
2023-01-23T17:08:37.811Z,103920.59
2023-01-23T17:11:06.972Z,103917.97
2023-01-23T17:13:35.930Z,103918.03
2023-01-23T17:16:10.598Z,103921.50
2023-01-23T17:18:43.413Z,103922.41
2023-01-23T17:21:18.377Z,103919.75
2023-01-23T17:23:48.143Z,103931.13
2023-01-23T17:26:18.757Z,103926.81
2023-01-23T17:28:46.593Z,103934.81
2023-01-23T17:31:20.523Z,103931.28
2023-01-23T17:33:52.313Z,103935.78
2023-01-23T17:36:20.609Z,103934.03
2023-01-23T17:38:58.681Z,103935.72
2023-01-23T17:41:26.945Z,103938.38
2023-01-23T17:43:57.827Z,103935.66
2023-01-23T17:46:27.819Z,103933.97
2023-01-23T17:48:56.952Z,103947.28
2023-01-23T17:51:26.600Z,103941.09
2023-01-23T17:53:56.188Z,103951.63
2023-01-23T17:56:27.099Z,103954.22
2023-01-23T17:58:54.910Z,103957.84
2023-01-23T18:01:26.061Z,103949.88
2023-01-23T18:03:54.819Z,103955.94
2023-01-23T18:06:22.786Z,103953.34
2023-01-23T18:08:50.734Z,103956.00
2023-01-23T18:11:22.544Z,103954.28
2023-01-23T18:14:16.499Z,103952.50
2023-01-23T18:16:48.113Z,103952.50
2023-01-23T18:19:18.478Z,103954.13
2023-01-23T18:21:48.449Z,103953.34
2023-01-23T18:24:25.030Z,103965.63
2023-01-23T18:26:59.573Z,103964.78
2023-01-23T18:29:44.246Z,103963.00
2023-01-23T18:32:38.859Z,103958.66
2023-01-23T18:35:22.841Z,103955.94
2023-01-23T18:37:58.913Z,103962.06
2023-01-23T18:40:33.750Z,103967.34
2023-01-23T18:43:14.737Z,103962.00
2023-01-23T18:45:45.820Z,103965.63
2023-01-23T18:48:24.662Z,103969.19
2023-01-23T18:51:06.397Z,103968.38
2023-01-23T18:53:46.835Z,103971.97
2023-01-23T18:56:23.417Z,103973.72
2023-01-23T18:59:11.488Z,103972.03
2023-01-23T19:01:52.203Z,103972.81
2023-01-23T19:04:26.039Z,103976.28
2023-01-23T19:06:54.611Z,103977.88
2023-01-23T19:09:25.384Z,103980.69
2023-01-23T19:12:25.302Z,103988.72
2023-01-23T19:15:21.574Z,103980.59
2023-01-23T19:17:55.198Z,103990.97
2023-01-23T19:20:35.997Z,103978.72
2023-01-23T19:23:23.616Z,103981.38
2023-01-23T19:25:53.967Z,103976.88
2023-01-23T19:28:22.233Z,103984.00
2023-01-23T19:30:52.575Z,103979.59
2023-01-23T19:33:23.791Z,103980.59
2023-01-23T19:35:54.991Z,103972.69
2023-01-23T19:38:23.644Z,103977.13
2023-01-23T19:40:51.615Z,103973.56
2023-01-23T19:43:21.136Z,103968.19
2023-01-23T19:45:54.580Z,103966.44
2023-01-23T19:48:23.918Z,103974.47
2023-01-23T19:50:51.937Z,103968.41
2023-01-23T19:53:22.206Z,103970.97
2023-01-23T19:55:53.051Z,103963.94
2023-01-23T19:58:21.936Z,103964.81
2023-01-23T20:00:49.886Z,103951.47
2023-01-23T20:03:17.873Z,103962.06
2023-01-23T20:05:47.129Z,103968.25
2023-01-23T20:08:18.123Z,103968.78
2023-01-23T20:10:45.991Z,103974.91
2023-01-23T20:13:17.373Z,103973.28
2023-01-23T20:15:45.360Z,103975.97
2023-01-23T20:18:13.477Z,103975.16
2023-01-23T20:20:44.155Z,103984.84
2023-01-23T20:23:14.259Z,103989.22
2023-01-23T20:25:43.946Z,103987.47
2023-01-23T20:28:14.198Z,103981.19
2023-01-23T20:30:42.052Z,103986.56
2023-01-23T20:33:09.960Z,103987.41
2023-01-23T20:35:39.465Z,103983.16
2023-01-23T20:38:07.317Z,103979.69
2023-01-23T20:40:36.777Z,103981.41
2023-01-23T20:43:07.075Z,103979.53
2023-01-23T20:45:34.909Z,103978.53
2023-01-23T20:48:02.737Z,103983.91
2023-01-23T20:50:30.733Z,103984.00
2023-01-23T20:53:16.313Z,103981.44
2023-01-23T20:55:45.485Z,103978.81
2023-01-23T20:58:30.852Z,103976.81
2023-01-23T21:00:58.710Z,103982.09
2023-01-23T21:03:26.749Z,103983.94
2023-01-23T21:05:54.538Z,103986.47
2023-01-23T21:08:23.048Z,103989.97
2023-01-23T21:10:53.942Z,103990.03
2023-01-23T21:13:22.488Z,103992.75
2023-01-23T21:16:00.050Z,103989.94
2023-01-23T21:18:30.618Z,103997.16
2023-01-23T21:21:04.348Z,103997.25
2023-01-23T21:23:32.233Z,103996.44
2023-01-23T21:26:02.578Z,103996.41
2023-01-23T21:28:32.378Z,104007.09
2023-01-23T21:31:00.869Z,104002.50
2023-01-23T21:33:28.743Z,103993.50
2023-01-23T21:35:56.830Z,104006.75
2023-01-23T21:38:25.072Z,104000.63
2023-01-23T21:40:54.799Z,104002.38
2023-01-23T21:43:24.389Z,104009.31
2023-01-23T21:45:57.040Z,104006.81
2023-01-23T21:48:25.708Z,104019.19
2023-01-23T21:51:05.684Z,104012.97
2023-01-23T21:53:36.195Z,104016.50
2023-01-23T21:56:05.697Z,104011.97
2023-01-23T21:58:37.231Z,104005.00
2023-01-23T22:01:25.044Z,104012.84
2023-01-23T22:03:53.619Z,104018.94
2023-01-23T22:06:21.472Z,104016.44
2023-01-23T22:08:51.567Z,104022.69
2023-01-23T22:11:19.560Z,104025.06
2023-01-23T22:13:48.973Z,104026.97
2023-01-23T22:16:16.965Z,104030.41
2023-01-23T22:18:47.737Z,104031.38
2023-01-23T22:21:15.781Z,104035.88
2023-01-23T22:23:43.800Z,104040.41
2023-01-23T22:26:14.951Z,104041.34
2023-01-23T22:28:42.850Z,104039.59
2023-01-23T22:31:15.981Z,104034.31
2023-01-23T22:33:45.774Z,104043.91
2023-01-23T22:36:17.824Z,104034.84
2023-01-23T22:38:54.390Z,104035.78
2023-01-23T22:41:23.286Z,104026.81
2023-01-23T22:43:54.267Z,104033.06
2023-01-23T22:46:24.284Z,104021.78
2023-01-23T22:48:52.893Z,104007.66
2023-01-23T22:51:25.906Z,104007.56
2023-01-23T22:53:53.929Z,104006.66
2023-01-23T22:56:24.633Z,104012.03
2023-01-23T22:58:57.217Z,104011.69
2023-01-23T23:01:27.599Z,104006.53
2023-01-23T23:03:57.650Z,104007.44
2023-01-23T23:06:28.792Z,104005.59
2023-01-23T23:08:56.952Z,104001.38
2023-01-23T23:11:26.708Z,104011.06
2023-01-23T23:13:57.779Z,104008.41
2023-01-23T23:16:31.231Z,104013.84
2023-01-23T23:19:01.305Z,104011.03
2023-01-23T23:21:33.003Z,104011.94
2023-01-23T23:24:01.713Z,104013.69
2023-01-23T23:26:31.392Z,104012.94
2023-01-23T23:29:00.510Z,104014.69
2023-01-23T23:31:30.764Z,104018.13
2023-01-23T23:33:58.925Z,104019.75
2023-01-23T23:36:27.122Z,104019.91
2023-01-23T23:38:55.223Z,104018.72
2023-01-23T23:41:24.454Z,104022.41
2023-01-23T23:43:55.537Z,104023.09
2023-01-23T23:46:23.334Z,104024.16
2023-01-23T23:48:54.887Z,104023.50
2023-01-23T23:51:28.089Z,104027.06
2023-01-23T23:53:56.162Z,104021.78
2023-01-23T23:56:26.146Z,104022.47
2023-01-23T23:58:54.369Z,104014.53
